Terminal Aerodrome Forecast
Issued by NWS

Home | Current Version | Previous Version | Text Only | Print | Product List | Glossary On
Versions: 1 2 3 4 5 6 7 8 9 10 11 12 13 14 15 16 17 18 19 20 21 22 23
000
FTUS46 KSGX 160500
TAFCRQ
TAF
KCRQ 160520Z 1606/1706 VRB04KT P6SM OVC010
     FM160900 VRB04KT 5SM BR OVC008
     FM161600 VRB04KT 5SM BR SCT010
     FM161900 27007KT P6SM FEW010
     FM170100 VRB04KT P6SM BKN010=

USA.gov is the U.S. government's official web portal to all federal, state and local government web resources and services.